Time;durP1;ratioP1;P1;durP2;ratioP2;P2;SDS_P1;SDS_P2;PMS_P1;PMS_P2;Temp;Humidity;BMP_temperature;BMP_pressure;BME280_temperature;BME280_humidity;BME280_pressure;Samples;Min_cycle;Max_cycle;Signal;HPM_P1;HPM_P2
2022/05/23 00:01:03;;;;;;;4.00;1.55;;;;;;;13.47;80.90;101046.97;4983756;28;20052;-68
2022/05/23 00:03:28;;;;;;;2.50;1.70;;;;;;;13.32;81.30;101025.56;4979965;28;20026;-68
2022/05/23 00:05:54;;;;;;;7.70;2.22;;;;;;;13.25;80.98;101028.00;4975002;28;20550;-68
2022/05/23 00:08:21;;;;;;;2.95;1.48;;;;;;;13.26;81.44;101047.38;4979353;28;20511;-68
2022/05/23 00:10:47;;;;;;;3.38;2.00;;;;;;;13.10;80.91;101030.47;4976035;28;20089;-68
2022/05/23 00:13:13;;;;;;;5.30;1.90;;;;;;;13.16;81.23;101043.06;4984776;28;20034;-68
2022/05/23 00:15:38;;;;;;;2.53;1.58;;;;;;;13.20;80.93;101035.63;4976252;28;20035;-68
2022/05/23 00:18:04;;;;;;;3.92;1.92;;;;;;;13.11;81.82;101029.47;4975656;28;20379;-68
2022/05/23 00:20:29;;;;;;;5.47;1.67;;;;;;;12.99;81.82;101028.13;4995795;28;20035;-69
2022/05/23 00:22:54;;;;;;;3.25;1.67;;;;;;;12.95;82.08;101029.44;4978064;28;20089;-68
2022/05/23 00:25:20;;;;;;;3.65;1.77;;;;;;;12.93;82.02;101023.47;4985358;28;20019;-69
2022/05/23 00:27:46;;;;;;;2.67;1.65;;;;;;;12.91;82.48;101026.28;4985361;28;20493;-68
2022/05/23 00:30:18;;;;;;;2.65;1.98;;;;;;;12.82;81.97;101006.03;4979236;28;20061;-68
2022/05/23 00:35:28;;;;;;;4.72;2.72;;;;;;;12.80;82.66;100996.59;4984968;28;20037;-68
2022/05/23 00:37:58;;;;;;;3.35;1.80;;;;;;;12.72;82.82;100994.78;4978854;28;20047;-68
2022/05/23 00:40:44;;;;;;;4.13;2.20;;;;;;;12.64;83.09;100992.91;4965012;28;20065;-68
2022/05/23 00:43:16;;;;;;;3.88;2.15;;;;;;;12.59;84.09;100984.63;4960447;28;20031;-68
2022/05/23 00:45:49;;;;;;;7.05;2.40;;;;;;;12.59;84.08;100978.50;4958374;28;20046;-68
2022/05/23 00:48:16;;;;;;;4.00;2.22;;;;;;;12.51;83.02;100974.00;4968376;28;20034;-68
2022/05/23 00:50:47;;;;;;;4.07;2.55;;;;;;;12.50;83.86;100967.88;4965299;28;20125;-69
2022/05/23 00:53:13;;;;;;;3.93;2.40;;;;;;;12.45;83.15;100956.09;4957128;28;20030;-68
2022/05/23 00:55:44;;;;;;;2.92;1.92;;;;;;;12.55;82.98;100970.03;4972921;28;20289;-68
2022/05/23 00:58:29;;;;;;;3.15;2.13;;;;;;;12.55;83.35;100962.94;4964716;28;20030;-68
2022/05/23 01:00:59;;;;;;;4.03;1.73;;;;;;;12.60;82.96;100964.25;4959665;28;20292;-69
2022/05/23 01:03:24;;;;;;;3.30;2.17;;;;;;;12.61;83.76;100950.03;4958470;28;20431;-69
2022/05/23 01:05:54;;;;;;;4.45;1.92;;;;;;;12.58;83.15;100951.19;4960724;28;20331;-69
2022/05/23 01:08:20;;;;;;;3.03;1.48;;;;;;;12.54;82.90;100947.19;4960665;28;20453;-68
2022/05/23 01:10:45;;;;;;;4.10;1.98;;;;;;;12.52;83.29;100947.38;4960434;28;20065;-69
2022/05/23 01:13:11;;;;;;;2.28;1.88;;;;;;;12.57;83.17;100943.41;4975141;28;20027;-69
2022/05/23 01:15:36;;;;;;;3.70;2.25;;;;;;;12.46;84.18;100937.41;4957442;28;20054;-69
2022/05/23 01:18:03;;;;;;;4.97;2.05;;;;;;;12.41;83.70;100941.53;4958913;28;20109;-69
2022/05/23 01:20:29;;;;;;;2.72;1.70;;;;;;;12.34;83.41;100936.84;4958294;28;20039;-69
2022/05/23 01:23:23;;;;;;;3.35;1.80;;;;;;;12.30;83.51;100932.91;4958790;28;20027;-69
2022/05/23 01:25:49;;;;;;;3.63;2.03;;;;;;;12.23;84.52;100926.56;4949064;28;20043;-67
2022/05/23 01:28:15;;;;;;;3.83;1.65;;;;;;;12.14;84.95;100915.13;4967711;28;20050;-68
2022/05/23 01:30:42;;;;;;;5.22;1.88;;;;;;;12.04;84.25;100906.50;4957838;28;20035;-69
2022/05/23 01:33:09;;;;;;;5.05;1.90;;;;;;;12.04;84.31;100905.63;4963304;28;20031;-69
2022/05/23 01:35:36;;;;;;;2.40;1.70;;;;;;;11.90;84.62;100889.38;4958684;28;20379;-68
2022/05/23 01:38:01;;;;;;;4.07;1.55;;;;;;;11.86;85.10;100879.25;4968868;28;20051;-69
2022/05/23 01:40:27;;;;;;;2.53;1.70;;;;;;;11.95;85.15;100896.84;4985347;28;20022;-69
2022/05/23 01:42:53;;;;;;;5.50;2.00;;;;;;;11.98;84.35;100887.78;4979335;28;20137;-69
2022/05/23 01:45:21;;;;;;;4.97;1.77;;;;;;;11.88;85.35;100874.66;4977581;28;20407;-69
2022/05/23 01:47:47;;;;;;;5.35;1.90;;;;;;;11.96;84.15;100887.09;4977446;28;20434;-69
2022/05/23 01:50:13;;;;;;;3.90;1.50;;;;;;;11.91;84.28;100890.19;4970596;28;20030;-69
2022/05/23 01:52:39;;;;;;;4.82;1.70;;;;;;;12.04;84.71;100895.06;4972002;28;20035;-69
2022/05/23 01:55:05;;;;;;;8.27;2.03;;;;;;;11.90;84.68;100876.16;4980372;28;20393;-69
2022/05/23 01:57:32;;;;;;;6.18;1.50;;;;;;;12.03;84.46;100890.78;4981172;28;20093;-69
2022/05/23 02:02:44;;;;;;;1.75;1.45;;;;;;;12.03;84.43;100882.84;4979804;28;20060;-69
2022/05/23 02:05:10;;;;;;;5.05;1.67;;;;;;;12.04;83.70;100885.31;4974602;28;20023;-69
2022/05/23 02:07:35;;;;;;;2.50;1.50;;;;;;;12.07;83.63;100874.41;4986943;28;20033;-69
2022/05/23 02:10:01;;;;;;;3.40;1.80;;;;;;;12.06;83.11;100878.06;4987450;28;20109;-69
2022/05/23 02:12:26;;;;;;;4.53;2.05;;;;;;;12.08;84.53;100872.59;4988346;28;20038;-69
2022/05/23 02:14:51;;;;;;;5.63;1.75;;;;;;;12.10;83.23;100866.16;4975988;28;20475;-69
2022/05/23 02:17:17;;;;;;;3.60;1.42;;;;;;;12.09;83.34;100861.88;4981934;28;20455;-69
2022/05/23 02:19:43;;;;;;;4.35;1.58;;;;;;;12.06;83.70;100859.53;4978356;28;20030;-69
2022/05/23 02:22:08;;;;;;;5.13;1.98;;;;;;;12.23;83.12;100863.06;4976238;28;20045;-69
2022/05/23 02:24:34;;;;;;;3.45;1.73;;;;;;;12.30;83.01;100853.50;4982405;28;20019;-68
2022/05/23 02:27:00;;;;;;;3.25;1.45;;;;;;;12.35;82.59;100847.72;4960959;28;20062;-68
2022/05/23 02:29:26;;;;;;;7.25;1.92;;;;;;;12.37;82.58;100855.47;4978764;28;20026;-68
2022/05/23 02:31:51;;;;;;;2.17;1.20;;;;;;;12.37;82.57;100842.25;4976947;28;20033;-69
2022/05/23 02:34:18;;;;;;;2.78;1.60;;;;;;;12.41;82.87;100844.44;4936087;28;20453;-69
2022/05/23 02:36:44;;;;;;;5.53;1.58;;;;;;;12.32;82.65;100834.81;4961544;28;20074;-69
2022/05/23 02:39:09;;;;;;;3.47;1.60;;;;;;;12.27;83.07;100837.94;4983734;28;20057;-69
2022/05/23 02:41:37;;;;;;;5.65;1.70;;;;;;;12.28;82.71;100833.47;4982699;28;20129;-69
2022/05/23 02:44:03;;;;;;;5.95;1.60;;;;;;;12.26;83.10;100831.00;4962025;28;20034;-69
2022/05/23 02:46:28;;;;;;;5.10;1.65;;;;;;;12.26;84.18;100831.00;4981418;28;20019;-69
2022/05/23 02:48:54;;;;;;;2.67;1.80;;;;;;;12.25;83.85;100829.31;4982698;28;20041;-69
2022/05/23 02:51:20;;;;;;;3.47;1.60;;;;;;;12.25;83.87;100818.75;4982669;28;20054;-69
2022/05/23 02:53:46;;;;;;;5.25;1.92;;;;;;;12.25;84.39;100818.75;4975974;28;20047;-69
2022/05/23 02:56:11;;;;;;;5.15;1.70;;;;;;;12.27;83.84;100816.75;4984343;28;20034;-69
2022/05/23 02:58:36;;;;;;;5.47;1.52;;;;;;;12.29;83.99;100814.78;4980157;28;20031;-69
2022/05/23 03:01:02;;;;;;;3.97;1.90;;;;;;;12.21;84.11;100798.88;4978437;28;20125;-69
2022/05/23 03:03:28;;;;;;;3.63;1.50;;;;;;;12.14;84.63;100790.75;4961732;28;20026;-69
2022/05/23 03:05:53;;;;;;;3.08;1.65;;;;;;;12.23;84.84;100799.56;4982292;28;20022;-69
2022/05/23 03:08:22;;;;;;;7.47;2.20;;;;;;;12.21;84.32;100800.72;4982755;28;20465;-69
2022/05/23 03:10:49;;;;;;;3.90;1.85;;;;;;;12.20;84.46;100791.13;4959924;28;20034;-69
2022/05/23 03:13:15;;;;;;;5.03;1.70;;;;;;;12.21;84.18;100790.94;4980262;28;20097;-68
2022/05/23 03:15:40;;;;;;;2.50;1.50;;;;;;;12.24;84.11;100780.06;4981517;28;20463;-69
2022/05/23 03:18:06;;;;;;;4.60;1.67;;;;;;;12.25;84.18;100783.53;4968123;28;20473;-69
2022/05/23 03:20:31;;;;;;;2.13;1.70;;;;;;;12.28;83.98;100785.84;4979993;28;20533;-69
2022/05/23 03:28:24;;;;;;;6.53;1.80;;;;;;;12.31;83.61;100783.69;4982020;28;20405;-69
2022/05/23 03:30:50;;;;;;;3.88;1.90;;;;;;;12.30;84.10;100784.72;4981871;28;20031;-69
2022/05/23 03:33:16;;;;;;;8.73;1.80;;;;;;;12.31;84.45;100772.28;4988633;28;20105;-69
2022/05/23 03:35:42;;;;;;;5.78;1.83;;;;;;;12.29;83.53;100777.75;4984499;28;20169;-69
2022/05/23 03:38:08;;;;;;;4.63;1.70;;;;;;;12.29;84.11;100769.81;4985773;28;20128;-69
2022/05/23 03:40:35;;;;;;;4.85;1.55;;;;;;;12.36;83.49;100772.63;4974983;28;20501;-68
2022/05/23 03:43:01;;;;;;;4.05;1.80;;;;;;;12.32;84.21;100766.84;4986158;28;20026;-68
2022/05/23 03:45:27;;;;;;;2.78;1.63;;;;;;;12.35;83.94;100761.22;4986414;28;20441;-69
2022/05/23 03:47:54;;;;;;;6.72;2.30;;;;;;;12.31;85.00;100756.41;4983969;28;20034;-69
2022/05/23 03:50:22;;;;;;;5.82;1.58;;;;;;;12.33;85.00;100755.25;4988070;28;20034;-69
2022/05/23 03:52:48;;;;;;;2.22;1.67;;;;;;;12.22;84.42;100734.41;4984571;28;20410;-69
2022/05/23 03:55:14;;;;;;;4.30;1.95;;;;;;;12.27;84.72;100747.16;4982038;28;20015;-68
2022/05/23 03:57:39;;;;;;;4.32;2.72;;;;;;;12.14;85.49;100731.75;4986665;28;20054;-69
2022/05/23 04:00:07;;;;;;;4.65;1.85;;;;;;;12.13;85.73;100722.16;4971825;28;20498;-69
2022/05/23 04:02:33;;;;;;;4.15;2.22;;;;;;;12.09;85.66;100712.91;4986757;28;20041;-69
2022/05/23 04:04:59;;;;;;;4.25;2.17;;;;;;;12.17;85.04;100720.00;4982405;28;20022;-69
2022/05/23 04:07:24;;;;;;;7.63;2.08;;;;;;;12.27;84.83;100724.16;4986610;28;20101;-69
2022/05/23 04:09:50;;;;;;;3.03;2.13;;;;;;;12.33;84.81;100720.84;4952709;28;20054;-69
2022/05/23 04:12:15;;;;;;;5.18;1.77;;;;;;;12.37;84.28;100720.50;4982918;28;20145;-69
2022/05/23 04:14:41;;;;;;;4.00;1.63;;;;;;;12.49;84.79;100717.38;4955282;28;20027;-69
2022/05/23 04:17:07;;;;;;;3.63;1.75;;;;;;;12.54;83.87;100733.59;4978914;28;20038;-69
2022/05/23 04:19:33;;;;;;;4.28;2.30;;;;;;;12.57;83.25;100721.84;4983445;28;20027;-69
2022/05/23 04:21:58;;;;;;;5.47;1.70;;;;;;;12.49;84.01;100693.56;4979078;28;20092;-69
2022/05/23 04:24:23;;;;;;;3.70;1.95;;;;;;;12.63;84.28;100718.56;4959414;28;20395;-69
2022/05/23 04:26:54;;;;;;;2.67;1.70;;;;;;;12.63;83.37;100710.59;4975489;28;20200;-69
2022/05/23 04:29:20;;;;;;;5.55;1.73;;;;;;;12.67;83.25;100704.00;4981879;28;20165;-69
2022/05/23 04:31:45;;;;;;;3.42;1.98;;;;;;;12.70;83.50;100701.00;4963499;28;20034;-69
2022/05/23 04:36:54;;;;;;;4.72;1.80;;;;;;;12.75;82.61;100688.06;4978756;28;20049;-69
2022/05/23 04:39:20;;;;;;;3.50;1.90;;;;;;;12.79;83.51;100687.75;4955788;28;20050;-69
2022/05/23 04:41:45;;;;;;;3.00;2.35;;;;;;;12.79;83.33;100677.16;4962861;28;20031;-69
2022/05/23 04:44:11;;;;;;;6.35;2.85;;;;;;;12.84;83.67;100677.47;4979456;28;20475;-69
2022/05/23 04:46:36;;;;;;;4.85;2.60;;;;;;;12.83;83.54;100681.13;4979937;28;20037;-68
2022/05/23 04:51:46;;;;;;;5.90;2.20;;;;;;;12.69;82.82;100666.72;4980118;28;20133;-69
2022/05/23 04:54:11;;;;;;;4.35;2.10;;;;;;;12.62;83.44;100655.16;4961463;28;20133;-69
2022/05/23 04:56:37;;;;;;;4.88;2.28;;;;;;;12.62;82.48;100655.97;4981081;28;20682;-69
2022/05/23 04:59:04;;;;;;;7.32;2.47;;;;;;;12.63;83.07;100646.22;4955952;28;20360;-68
2022/05/23 05:01:29;;;;;;;3.58;2.15;;;;;;;12.60;83.53;100636.78;4983045;28;20039;-68
2022/05/23 05:03:57;;;;;;;3.05;2.40;;;;;;;12.79;82.89;100642.72;4947765;28;20046;-68
2022/05/23 05:06:25;;;;;;;2.65;1.77;;;;;;;12.94;81.35;100644.50;4962831;28;20114;-68
2022/05/23 05:08:51;;;;;;;6.50;2.50;;;;;;;13.13;81.74;100637.97;4978695;28;20518;-69
2022/05/23 05:11:17;;;;;;;4.25;2.10;;;;;;;13.28;81.25;100635.47;4978638;28;20111;-69
2022/05/23 05:13:43;;;;;;;6.50;2.58;;;;;;;13.32;80.43;100604.94;4978216;28;20105;-68
2022/05/23 05:16:09;;;;;;;6.68;2.63;;;;;;;13.54;81.00;100624.56;4976339;28;20030;-68
2022/05/23 05:18:35;;;;;;;5.90;2.60;;;;;;;13.61;80.05;100618.53;4959122;28;20509;-69
2022/05/23 05:21:09;;;;;;;3.72;2.30;;;;;;;13.78;79.91;100620.06;4976535;28;20498;-69
2022/05/23 05:23:35;;;;;;;3.40;2.42;;;;;;;13.92;78.25;100614.03;4977286;28;20037;-69
2022/05/23 05:26:02;;;;;;;5.43;2.55;;;;;;;14.12;78.24;100605.56;4966088;28;20026;-68
2022/05/23 05:28:28;;;;;;;2.90;1.95;;;;;;;14.36;78.14;100594.72;4956376;28;20034;-69
2022/05/23 05:31:01;;;;;;;4.50;3.03;;;;;;;14.50;77.31;100609.03;4980572;28;20023;-69
2022/05/23 05:33:32;;;;;;;5.53;2.47;;;;;;;14.60;76.53;100598.16;4981949;28;20058;-69
2022/05/23 05:36:02;;;;;;;7.32;2.42;;;;;;;14.39;76.21;100597.03;4979983;28;20010;-68
2022/05/23 05:38:35;;;;;;;7.30;2.70;;;;;;;14.54;77.38;100593.56;4978994;28;20045;-69
2022/05/23 05:41:06;;;;;;;9.18;3.10;;;;;;;14.64;77.17;100588.00;4982027;28;20038;-69
2022/05/23 05:43:40;;;;;;;4.70;2.72;;;;;;;14.64;77.02;100585.38;4977596;28;20047;-68
2022/05/23 05:46:30;;;;;;;10.88;3.08;;;;;;;14.53;76.07;100581.28;4981543;28;20045;-69
2022/05/23 05:48:57;;;;;;;3.80;2.95;;;;;;;14.66;75.95;100560.25;4981269;28;20042;-69
2022/05/23 05:51:25;;;;;;;3.47;3.15;;;;;;;14.58;76.61;100547.88;4985278;28;20482;-68
2022/05/23 05:53:51;;;;;;;5.53;3.17;;;;;;;14.58;76.78;100569.13;4961058;28;20030;-69
2022/05/23 05:56:18;;;;;;;5.35;3.15;;;;;;;14.70;76.63;100566.84;4981767;28;20085;-69
2022/05/23 05:58:44;;;;;;;6.43;3.35;;;;;;;14.68;76.72;100562.75;4979553;28;20034;-69
2022/05/23 06:01:09;;;;;;;7.35;3.05;;;;;;;14.63;77.17;100563.25;4989222;28;20060;-71
2022/05/23 06:03:34;;;;;;;6.22;3.17;;;;;;;14.59;76.93;100567.31;4987386;28;20069;-69
2022/05/23 06:11:29;;;;;;;11.63;3.97;;;;;;;14.67;78.22;100566.38;4965238;28;20625;-69
2022/05/23 06:13:57;;;;;;;8.13;3.92;;;;;;;14.71;78.20;100563.19;4960788;28;20034;-69
2022/05/23 06:16:23;;;;;;;9.30;3.35;;;;;;;14.66;78.55;100549.63;4982116;28;20031;-69
2022/05/23 06:18:49;;;;;;;8.35;4.10;;;;;;;14.76;79.02;100549.34;4980004;28;20080;-69
2022/05/23 06:21:15;;;;;;;7.00;3.72;;;;;;;14.93;78.54;100540.16;4979975;28;20118;-68
2022/05/23 06:23:41;;;;;;;7.10;3.92;;;;;;;15.04;78.87;100533.53;4979561;28;20038;-69
2022/05/23 06:26:07;;;;;;;6.43;3.63;;;;;;;15.46;77.55;100539.09;4980089;28;20026;-68
2022/05/23 06:28:34;;;;;;;6.78;3.75;;;;;;;15.50;76.75;100538.53;4979299;28;20027;-69
2022/05/23 06:31:00;;;;;;;6.22;3.42;;;;;;;15.71;76.84;100534.22;4979828;28;20019;-69
2022/05/23 06:33:26;;;;;;;4.97;3.35;;;;;;;15.79;76.30;100528.81;4981580;28;20038;-69
2022/05/23 06:35:51;;;;;;;5.40;3.53;;;;;;;16.03;76.23;100520.41;4980802;28;20022;-69
2022/05/23 06:38:17;;;;;;;6.03;3.80;;;;;;;15.96;75.41;100519.53;4980325;28;20438;-69
2022/05/23 06:40:43;;;;;;;7.18;4.07;;;;;;;16.19;74.99;100518.44;4978361;28;20037;-69
2022/05/23 06:43:09;;;;;;;7.18;3.60;;;;;;;16.28;74.76;100519.94;4982174;28;20035;-69
2022/05/23 06:45:35;;;;;;;6.60;4.05;;;;;;;16.41;74.41;100506.69;4978528;28;20602;-69
2022/05/23 06:48:01;;;;;;;9.02;4.35;;;;;;;16.54;74.27;100523.78;4960694;28;20034;-69
2022/05/23 06:50:27;;;;;;;8.13;3.47;;;;;;;16.70;73.68;100526.13;4979990;28;20038;-69
2022/05/23 06:52:52;;;;;;;7.47;3.30;;;;;;;17.19;72.86;100525.09;4978688;28;20542;-69
2022/05/23 06:55:18;;;;;;;8.07;3.70;;;;;;;17.36;71.63;100516.72;4981486;28;20034;-69
2022/05/23 06:57:43;;;;;;;6.07;3.42;;;;;;;17.22;71.73;100524.69;4977588;28;20260;-69
2022/05/23 07:00:09;;;;;;;5.47;3.42;;;;;;;17.47;71.54;100511.59;4980983;28;20034;-69
2022/05/23 07:02:36;;;;;;;4.55;3.55;;;;;;;17.78;71.51;100518.19;4975217;28;20027;-69
2022/05/23 07:13:14;;;;;;;6.47;3.35;;;;;;;17.84;69.78;100527.25;4977955;28;20137;-69
2022/05/23 07:15:46;;;;;;;6.35;3.53;;;;;;;18.14;69.03;100516.97;4976672;28;20117;-69
2022/05/23 07:18:13;;;;;;;4.45;3.15;;;;;;;18.16;68.77;100514.91;4957159;28;20027;-69
2022/05/23 07:20:39;;;;;;;7.28;3.33;;;;;;;18.23;69.13;100513.03;4981615;28;20046;-69
2022/05/23 07:23:04;;;;;;;6.65;3.65;;;;;;;18.70;68.96;100523.59;4977078;28;20022;-69
2022/05/23 07:25:30;;;;;;;7.18;4.10;;;;;;;18.27;69.79;100510.78;4979111;28;20031;-69
2022/05/23 07:27:55;;;;;;;5.70;3.05;;;;;;;18.56;69.36;100500.63;4975583;28;20360;-69
2022/05/23 07:30:21;;;;;;;5.85;3.55;;;;;;;18.55;68.72;100505.13;4967828;28;20086;-69
2022/05/23 07:32:47;;;;;;;5.65;3.40;;;;;;;18.53;69.09;100487.69;4982105;28;20040;-69
2022/05/23 07:35:12;;;;;;;6.63;3.88;;;;;;;18.81;69.12;100495.41;4976251;28;20087;-69
2022/05/23 07:37:38;;;;;;;7.43;3.38;;;;;;;19.33;67.80;100491.59;4980797;28;20405;-69
2022/05/23 07:40:04;;;;;;;5.50;3.40;;;;;;;19.51;66.96;100488.19;4976372;28;20105;-69
2022/05/23 07:42:29;;;;;;;5.82;3.70;;;;;;;19.79;66.00;100486.16;4980613;28;20041;-69
2022/05/23 07:44:56;;;;;;;5.88;3.50;;;;;;;19.90;65.92;100480.06;4959502;28;20031;-69
2022/05/23 07:47:21;;;;;;;5.97;3.30;;;;;;;19.75;64.85;100479.59;4977638;28;20084;-69
2022/05/23 07:49:50;;;;;;;6.30;3.38;;;;;;;19.73;66.43;100456.53;4976552;28;20034;-69
2022/05/23 07:52:15;;;;;;;5.82;3.50;;;;;;;20.26;65.82;100465.91;4978562;28;20026;-69
2022/05/23 08:00:33;;;;;;;6.07;3.65;;;;;;;20.28;65.30;100452.28;4934854;29;20043;-70
2022/05/23 08:03:16;;;;;;;10.05;3.78;;;;;;;20.61;65.01;100446.53;4936335;29;20046;-69
2022/05/23 08:05:43;;;;;;;5.78;3.13;;;;;;;20.92;63.12;100448.19;4938822;29;20031;-69
2022/05/23 08:08:09;;;;;;;6.93;3.80;;;;;;;21.25;63.19;100440.69;4935802;29;20104;-69
2022/05/23 08:10:34;;;;;;;8.15;3.85;;;;;;;20.59;64.28;100429.03;4939063;29;20578;-71
2022/05/23 08:13:02;;;;;;;8.98;4.10;;;;;;;20.36;64.87;100430.53;4938377;28;20074;-70
2022/05/23 08:15:28;;;;;;;6.70;4.20;;;;;;;20.21;65.59;100424.72;4938781;29;20040;-70
2022/05/23 08:17:55;;;;;;;7.28;3.97;;;;;;;20.33;65.45;100425.63;4936080;29;20476;-69
2022/05/23 08:20:21;;;;;;;6.63;4.30;;;;;;;19.86;67.17;100427.97;4939165;29;20027;-69
2022/05/23 08:22:51;;;;;;;8.20;4.22;;;;;;;20.37;66.56;100428.69;4936377;29;20042;-69
2022/05/23 08:25:17;;;;;;;6.90;3.30;;;;;;;20.78;64.39;100424.47;4939849;29;20032;-69
2022/05/23 08:27:42;;;;;;;8.57;4.28;;;;;;;20.85;64.32;100420.63;4930684;28;20489;-69
2022/05/23 08:30:08;;;;;;;8.00;4.28;;;;;;;21.32;62.62;100426.13;4935902;29;20043;-69
2022/05/23 08:32:34;;;;;;;6.05;4.38;;;;;;;21.34;63.11;100415.16;4939279;29;20439;-69
2022/05/23 08:34:59;;;;;;;8.07;4.40;;;;;;;21.90;61.39;100405.72;4967145;28;20041;-69
2022/05/23 08:37:24;;;;;;;7.35;3.95;;;;;;;21.65;61.39;100408.66;4982073;28;20074;-70
2022/05/23 08:39:50;;;;;;;7.05;3.97;;;;;;;22.22;60.78;100418.78;4977865;28;20061;-70
2022/05/23 08:42:15;;;;;;;7.70;3.60;;;;;;;22.72;60.14;100396.63;4981087;28;20041;-69
2022/05/23 08:44:47;;;;;;;7.35;4.05;;;;;;;22.88;59.32;100395.00;4978318;28;20032;-69
2022/05/23 08:48:01;;;;;;;4.57;3.67;;;;;;;22.52;59.89;100391.69;4982321;28;20077;-70
2022/05/23 08:50:56;;;;;;;5.75;3.67;;;;;;;23.46;59.44;100397.59;4977799;28;20026;-69
2022/05/23 08:53:30;;;;;;;8.07;3.70;;;;;;;23.18;60.30;100393.94;4947419;28;20494;-70
2022/05/23 08:56:01;;;;;;;8.30;4.43;;;;;;;23.17;57.90;100371.59;4978479;28;20070;-69
2022/05/23 08:58:36;;;;;;;10.35;4.68;;;;;;;23.63;58.69;100376.84;4982018;28;20117;-70
2022/05/23 09:01:10;;;;;;;7.30;4.60;;;;;;;23.32;57.44;100360.25;4978609;28;20066;-69
2022/05/23 09:03:43;;;;;;;5.40;3.55;;;;;;;24.03;57.73;100349.63;4981398;28;20057;-69
2022/05/23 09:06:15;;;;;;;7.85;4.15;;;;;;;24.36;56.44;100364.00;4976697;28;20031;-69
2022/05/23 09:08:55;;;;;;;6.05;3.58;;;;;;;24.16;55.83;100361.09;4979017;28;20031;-70
2022/05/23 09:11:30;;;;;;;3.92;3.50;;;;;;;24.88;57.24;100359.16;4983199;28;20035;-69
2022/05/23 09:13:56;;;;;;;8.80;4.80;;;;;;;24.56;56.33;100349.13;4976521;28;20026;-69
2022/05/23 09:16:31;;;;;;;6.35;4.10;;;;;;;25.12;55.18;100351.50;4976917;28;20033;-69
2022/05/23 09:19:19;;;;;;;6.65;3.95;;;;;;;25.21;55.54;100350.78;4978597;28;20084;-69
2022/05/23 09:24:41;;;;;;;6.20;3.90;;;;;;;24.14;57.89;100331.69;4975019;28;20501;-70
2022/05/23 09:27:13;;;;;;;10.40;3.92;;;;;;;24.14;56.94;100320.91;4983984;28;20034;-69
2022/05/23 09:29:39;;;;;;;6.07;4.03;;;;;;;24.38;58.59;100326.81;4980307;28;20030;-69
2022/05/23 09:32:17;;;;;;;6.93;4.10;;;;;;;24.35;58.13;100321.13;4983421;28;20390;-69
2022/05/23 09:34:51;;;;;;;6.88;4.03;;;;;;;24.87;57.18;100315.16;4976586;28;20771;-70
2022/05/23 09:37:39;;;;;;;5.10;3.95;;;;;;;24.58;58.00;100317.31;4979611;28;20505;-69
2022/05/23 09:40:08;;;;;;;7.35;4.18;;;;;;;25.51;56.07;100302.63;4973360;28;20033;-69
2022/05/23 09:48:20;;;;;;;7.85;4.00;;;;;;;25.43;54.73;100303.94;4984519;28;20049;-69
2022/05/23 09:51:00;;;;;;;6.80;4.03;;;;;;;24.94;56.73;100290.66;4974825;28;20094;-69
2022/05/23 09:53:27;;;;;;;6.28;3.95;;;;;;;24.69;56.44;100277.75;4976378;28;20134;-69
2022/05/23 09:55:53;;;;;;;5.22;3.67;;;;;;;24.16;57.29;100286.41;4974990;28;20720;-69
2022/05/23 09:58:33;;;;;;;8.07;3.40;;;;;;;24.49;56.90;100273.81;4979341;28;20027;-70
2022/05/23 10:01:07;;;;;;;7.65;3.60;;;;;;;24.71;56.87;100275.63;4975074;28;20077;-69
2022/05/23 10:03:33;;;;;;;5.78;3.00;;;;;;;25.14;55.52;100262.97;4981941;28;20085;-70
2022/05/23 10:06:11;;;;;;;6.03;3.10;;;;;;;25.54;55.35;100269.69;4974227;28;20893;-69
2022/05/23 10:08:45;;;;;;;6.00;3.55;;;;;;;26.02;55.49;100270.41;4980222;28;20050;-70
2022/05/23 10:11:30;;;;;;;7.35;3.67;;;;;;;25.94;55.49;100266.34;4983481;28;20025;-69
2022/05/23 10:14:00;;;;;;;8.35;4.25;;;;;;;26.12;54.31;100256.13;4982020;28;20469;-69
2022/05/23 10:16:31;;;;;;;6.32;3.67;;;;;;;26.51;54.64;100242.88;4973838;28;20030;-69
2022/05/23 10:19:06;;;;;;;8.63;4.22;;;;;;;26.47;54.30;100258.03;4970698;28;20085;-69
2022/05/23 10:21:43;;;;;;;5.97;3.30;;;;;;;26.00;55.69;100232.84;4980409;28;20118;-69
2022/05/23 10:24:18;;;;;;;4.47;3.22;;;;;;;26.98;52.42;100230.97;4978087;28;20100;-68
2022/05/23 10:26:51;;;;;;;4.38;3.20;;;;;;;27.26;51.17;100231.44;4977293;28;20097;-69
2022/05/23 10:29:24;;;;;;;7.47;3.58;;;;;;;27.08;52.63;100227.41;4985204;28;20447;-69
2022/05/23 10:31:56;;;;;;;4.53;2.80;;;;;;;27.93;50.86;100221.13;4981451;28;20147;-70
2022/05/23 10:34:33;;;;;;;5.53;2.90;;;;;;;27.21;52.35;100207.88;4986157;28;20033;-69
2022/05/23 10:37:03;;;;;;;7.00;3.58;;;;;;;27.07;51.33;100213.06;4975632;28;20030;-69
2022/05/23 10:42:28;;;;;;;5.68;2.88;;;;;;;26.22;52.80;100197.44;4983982;28;20523;-69
2022/05/23 10:45:02;;;;;;;6.07;3.10;;;;;;;25.80;53.01;100206.53;4972952;28;20081;-69
2022/05/23 10:47:54;;;;;;;6.30;2.55;;;;;;;25.71;54.31;100196.50;4981161;28;20031;-69
2022/05/23 10:50:26;;;;;;;6.30;3.00;;;;;;;24.95;54.79;100185.09;4973160;28;20522;-70
2022/05/23 10:53:10;;;;;;;6.20;3.40;;;;;;;24.52;54.80;100191.56;4972917;28;20082;-69
2022/05/23 10:55:57;;;;;;;4.72;2.90;;;;;;;24.40;56.24;100184.44;4979908;28;20470;-69
2022/05/23 10:58:49;;;;;;;6.35;3.42;;;;;;;24.97;57.09;100172.16;4978111;28;20044;-69
2022/05/23 11:01:45;;;;;;;5.95;3.38;;;;;;;25.27;55.28;100164.50;4974105;28;20031;-69
2022/05/23 11:04:41;;;;;;;6.30;2.88;;;;;;;24.60;56.55;100164.91;4975947;28;20049;-69
2022/05/23 11:07:30;;;;;;;4.20;2.88;;;;;;;24.83;55.75;100158.31;4970819;28;20030;-69
2022/05/23 11:10:15;;;;;;;5.15;2.83;;;;;;;25.06;54.21;100150.88;4975805;28;20033;-69
2022/05/23 11:12:57;;;;;;;6.00;2.58;;;;;;;25.36;54.94;100169.13;4973454;28;20031;-70
2022/05/23 11:15:46;;;;;;;6.68;2.88;;;;;;;25.91;52.87;100153.31;4979486;28;20551;-70
2022/05/23 11:18:50;;;;;;;5.35;2.55;;;;;;;26.72;52.04;100142.75;4970213;28;20160;-69
2022/05/23 11:21:56;;;;;;;5.53;2.75;;;;;;;26.63;50.14;100142.50;4975415;28;20505;-71
2022/05/23 11:24:52;;;;;;;3.60;2.55;;;;;;;26.41;51.54;100134.66;4974437;28;20034;-71
2022/05/23 11:35:55;;;;;;;4.05;2.30;;;;;;;25.02;54.62;100093.91;4973318;28;20504;-70
2022/05/23 11:38:21;;;;;;;7.13;2.50;;;;;;;25.66;52.34;100106.25;4973068;28;20149;-70
2022/05/23 11:40:51;;;;;;;2.45;1.85;;;;;;;25.75;51.14;100093.00;4974430;28;20033;-71
2022/05/23 11:43:18;;;;;;;3.10;1.90;;;;;;;24.74;51.58;100099.72;4976597;28;20053;-71
2022/05/23 11:45:57;;;;;;;19.90;4.47;;;;;;;25.00;52.55;100087.16;4973216;28;20430;-70
2022/05/23 11:51:22;;;;;;;6.75;3.15;;;;;;;26.84;48.22;100065.56;4974792;28;20077;-70
2022/05/23 11:53:55;;;;;;;3.92;2.40;;;;;;;27.17;47.88;100073.25;4976228;28;20026;-70
2022/05/23 11:56:35;;;;;;;7.47;2.20;;;;;;;26.96;48.68;100064.41;4974391;28;20061;-69
2022/05/23 11:59:02;;;;;;;3.88;1.80;;;;;;;26.82;49.44;100048.78;4975990;28;20026;-69
2022/05/23 12:01:29;;;;;;;4.05;1.80;;;;;;;27.52;47.03;100049.78;4976052;28;20490;-71
2022/05/23 12:03:56;;;;;;;3.83;1.65;;;;;;;27.35;46.54;100044.72;4972303;28;20030;-69
2022/05/23 12:06:24;;;;;;;3.85;1.80;;;;;;;26.35;48.85;100038.34;4976900;28;20027;-70
2022/05/23 12:08:59;;;;;;;2.70;1.83;;;;;;;25.79;49.93;100053.56;4970874;28;20023;-69
2022/05/23 12:11:29;;;;;;;5.50;2.60;;;;;;;25.32;50.10;100045.69;4977091;28;20037;-69
2022/05/23 12:14:12;;;;;;;3.92;2.08;;;;;;;24.89;51.30;100029.63;4976171;28;20085;-69
2022/05/23 12:17:06;;;;;;;3.08;1.83;;;;;;;24.90;52.30;100031.22;4977267;28;20015;-69
2022/05/23 12:19:39;;;;;;;5.00;2.13;;;;;;;25.46;51.93;100033.28;4968746;28;20042;-69
2022/05/23 12:22:23;;;;;;;4.18;1.80;;;;;;;25.85;52.24;100030.84;4979221;28;20049;-69
2022/05/23 12:25:15;;;;;;;5.03;1.60;;;;;;;26.56;48.96;100023.72;4972022;28;20029;-70
2022/05/23 12:27:40;;;;;;;3.30;1.98;;;;;;;26.47;49.96;100009.13;4973756;28;20097;-69
2022/05/23 12:30:20;;;;;;;5.50;2.22;;;;;;;26.34;48.77;100009.69;4972251;28;20602;-69
2022/05/23 12:32:58;;;;;;;4.28;1.90;;;;;;;26.50;48.27;100002.34;4976625;28;20059;-69
2022/05/23 12:35:46;;;;;;;4.60;1.63;;;;;;;26.34;48.71;99994.28;4982869;28;20502;-70